Time;durP1;ratioP1;P1;durP2;ratioP2;P2;SDS_P1;SDS_P2;PMS_P1;PMS_P2;Temp;Humidity;BMP_temperature;BMP_pressure;BME280_temperature;BME280_humidity;BME280_pressure;Samples;Min_cycle;Max_cycle;Signal;HPM_P1;HPM_P2
2023/12/09 00:01:17;;;;;;;7.90;7.80;;;7.70;99.90;;;;;;5087459;28;20455;-70
2023/12/09 00:03:44;;;;;;;7.37;7.27;;;7.60;99.90;;;;;;5071349;28;20470;-70
2023/12/09 00:06:12;;;;;;;7.73;7.63;;;7.60;99.90;;;;;;5073780;28;20966;-69
2023/12/09 00:08:38;;;;;;;7.30;7.20;;;7.50;99.90;;;;;;5084272;28;20516;-70
2023/12/09 00:11:05;;;;;;;7.40;7.30;;;7.40;99.90;;;;;;5082494;28;20504;-70
2023/12/09 00:13:34;;;;;;;7.13;7.03;;;7.40;99.90;;;;;;5093145;28;20573;-69
2023/12/09 00:16:03;;;;;;;7.43;7.33;;;7.40;99.90;;;;;;5071726;28;20497;-68
2023/12/09 00:18:29;;;;;;;7.23;7.13;;;7.40;99.90;;;;;;5087518;28;20470;-68
2023/12/09 00:20:56;;;;;;;7.53;7.43;;;7.30;99.90;;;;;;5073662;28;20976;-70
2023/12/09 00:23:24;;;;;;;7.60;7.50;;;7.30;99.90;;;;;;5089011;28;20458;-71
2023/12/09 00:25:50;;;;;;;7.13;7.03;;;7.30;99.90;;;;;;5084489;28;20524;-68
2023/12/09 00:28:17;;;;;;;7.80;7.70;;;7.20;99.90;;;;;;5082077;28;20470;-70
2023/12/09 00:30:46;;;;;;;6.90;6.80;;;7.20;99.90;;;;;;5089507;28;20489;-70
2023/12/09 00:33:13;;;;;;;6.80;6.70;;;7.20;99.90;;;;;;5080254;28;20530;-70
2023/12/09 00:35:40;;;;;;;7.00;6.90;;;7.20;99.90;;;;;;5084546;28;20438;-70
2023/12/09 00:38:08;;;;;;;6.40;6.30;;;7.30;99.90;;;;;;5081170;28;20463;-70
2023/12/09 00:40:35;;;;;;;6.87;6.77;;;7.30;99.90;;;;;;5072422;28;20471;-69
2023/12/09 00:43:03;;;;;;;6.60;6.50;;;7.20;99.90;;;;;;5086529;28;20482;-69
2023/12/09 00:45:31;;;;;;;6.70;6.60;;;7.20;99.90;;;;;;5087551;28;20490;-69
2023/12/09 00:48:00;;;;;;;6.50;6.40;;;7.20;99.90;;;;;;5072952;28;20490;-70
2023/12/09 00:50:27;;;;;;;6.10;6.00;;;7.20;99.90;;;;;;5082563;28;20513;-70
2023/12/09 00:52:54;;;;;;;6.67;6.57;;;7.20;99.90;;;;;;5085140;28;20458;-70
2023/12/09 00:55:20;;;;;;;6.37;6.27;;;7.20;99.90;;;;;;5079582;28;20994;-70
2023/12/09 00:57:48;;;;;;;5.87;5.77;;;7.20;99.90;;;;;;5088146;28;20469;-69
2023/12/09 01:00:16;;;;;;;5.60;5.50;;;7.30;99.90;;;;;;5075343;28;20562;-69
2023/12/09 01:02:43;;;;;;;5.90;5.80;;;7.30;99.90;;;;;;5090696;28;20454;-69
2023/12/09 01:05:12;;;;;;;5.83;5.73;;;7.40;99.90;;;;;;5083729;28;20459;-69
2023/12/09 01:07:39;;;;;;;6.10;6.00;;;7.40;99.90;;;;;;5079166;28;20500;-71
2023/12/09 01:10:08;;;;;;;5.93;5.83;;;7.50;99.90;;;;;;5070767;28;20579;-70
2023/12/09 01:12:34;;;;;;;6.10;6.00;;;7.50;99.90;;;;;;5086993;28;20511;-70
2023/12/09 01:15:01;;;;;;;6.20;6.10;;;7.60;99.90;;;;;;5088425;28;20459;-69
2023/12/09 01:17:29;;;;;;;6.20;6.10;;;7.60;99.90;;;;;;5085913;28;20459;-69
2023/12/09 01:19:55;;;;;;;6.20;6.10;;;7.60;99.90;;;;;;5085608;28;20917;-71
2023/12/09 01:22:23;;;;;;;6.23;6.13;;;7.50;99.90;;;;;;5087442;28;20806;-69
2023/12/09 01:24:50;;;;;;;6.57;6.47;;;7.50;99.90;;;;;;5085029;28;20830;-69
2023/12/09 01:27:18;;;;;;;7.00;6.90;;;7.40;99.90;;;;;;5076713;28;20526;-70
2023/12/09 01:29:44;;;;;;;6.30;6.20;;;7.40;99.90;;;;;;5071397;28;20961;-69
2023/12/09 01:32:11;;;;;;;6.90;6.80;;;7.30;99.90;;;;;;5082538;28;20508;-69
2023/12/09 01:34:40;;;;;;;6.57;6.47;;;7.30;99.90;;;;;;5084484;28;20482;-71
2023/12/09 01:37:07;;;;;;;6.70;6.60;;;7.30;99.90;;;;;;5085132;28;20459;-70
2023/12/09 01:39:38;;;;;;;6.90;6.80;;;7.20;99.90;;;;;;5085041;28;20459;-71
2023/12/09 01:42:05;;;;;;;7.00;6.90;;;7.20;99.90;;;;;;5072702;28;20462;-70
2023/12/09 01:44:32;;;;;;;6.70;6.60;;;7.30;99.90;;;;;;5082088;28;20828;-70
2023/12/09 01:46:59;;;;;;;6.70;6.60;;;7.30;99.90;;;;;;5091609;28;20865;-70
2023/12/09 01:49:26;;;;;;;6.50;6.40;;;7.30;99.90;;;;;;5080937;28;20465;-70
2023/12/09 01:51:53;;;;;;;6.20;6.10;;;7.40;99.90;;;;;;5080518;28;21068;-71
2023/12/09 01:54:21;;;;;;;6.90;6.80;;;7.40;99.90;;;;;;5087229;28;20473;-70
2023/12/09 01:56:49;;;;;;;6.60;6.50;;;7.30;99.90;;;;;;5077935;28;20950;-69
2023/12/09 01:59:16;;;;;;;6.50;6.40;;;7.40;99.90;;;;;;5072540;28;20466;-70
2023/12/09 02:01:45;;;;;;;6.90;6.80;;;7.40;99.90;;;;;;5089097;28;20454;-69
2023/12/09 02:04:12;;;;;;;6.13;6.03;;;7.40;99.90;;;;;;5091164;28;20455;-70
2023/12/09 02:06:41;;;;;;;6.23;6.13;;;7.40;99.90;;;;;;5078592;28;20540;-70
2023/12/09 02:09:09;;;;;;;6.50;6.40;;;7.40;99.90;;;;;;5081967;28;20470;-71
2023/12/09 02:11:45;;;;;;;6.00;5.90;;;7.50;99.90;;;;;;5079739;28;20521;-71
2023/12/09 02:14:20;;;;;;;6.10;6.00;;;7.50;99.90;;;;;;5087583;28;20733;-71
2023/12/09 02:16:53;;;;;;;6.33;6.23;;;7.50;99.90;;;;;;5084509;28;20455;-72
2023/12/09 02:19:21;;;;;;;6.30;6.20;;;7.40;99.90;;;;;;5079501;28;20945;-71
2023/12/09 02:22:01;;;;;;;6.53;6.43;;;7.30;99.90;;;;;;5084855;28;21018;-70
2023/12/09 02:24:29;;;;;;;6.77;6.67;;;7.20;99.90;;;;;;5078216;28;20486;-72
2023/12/09 02:27:01;;;;;;;6.60;6.50;;;7.10;99.90;;;;;;5078468;28;20521;-72
2023/12/09 02:29:34;;;;;;;7.37;7.27;;;7.00;99.90;;;;;;5082028;28;20454;-69
2023/12/09 02:32:05;;;;;;;7.37;7.27;;;6.90;99.90;;;;;;5077342;28;20489;-70
2023/12/09 02:34:35;;;;;;;6.93;6.83;;;6.90;99.90;;;;;;5081778;28;20459;-68
2023/12/09 02:37:04;;;;;;;6.90;6.80;;;6.80;99.90;;;;;;5082674;28;20465;-68
2023/12/09 02:39:33;;;;;;;7.40;7.30;;;6.70;99.90;;;;;;5079572;28;20475;-69
2023/12/09 02:42:00;;;;;;;6.83;6.73;;;6.60;99.90;;;;;;5080742;28;20475;-68
2023/12/09 02:44:27;;;;;;;7.00;6.90;;;6.60;99.90;;;;;;5086312;28;20465;-69
2023/12/09 02:46:59;;;;;;;6.77;6.67;;;6.60;99.90;;;;;;5076363;28;20896;-69
2023/12/09 02:49:25;;;;;;;6.37;6.27;;;6.50;99.90;;;;;;5087368;28;20496;-70
2023/12/09 02:51:52;;;;;;;7.10;7.00;;;6.50;99.90;;;;;;5089806;28;20848;-70
2023/12/09 02:54:19;;;;;;;7.03;6.93;;;6.40;99.90;;;;;;5078426;28;20475;-70
2023/12/09 02:56:47;;;;;;;6.53;6.43;;;6.30;99.90;;;;;;5088515;28;20465;-69
2023/12/09 02:59:15;;;;;;;6.23;6.13;;;6.40;99.90;;;;;;5080976;28;20463;-69
2023/12/09 03:01:42;;;;;;;6.87;6.77;;;6.30;99.90;;;;;;5088916;28;20458;-69
2023/12/09 03:04:09;;;;;;;6.93;6.83;;;6.20;99.90;;;;;;5090634;28;20469;-69
2023/12/09 03:06:35;;;;;;;6.80;6.70;;;6.20;99.90;;;;;;5076878;28;20513;-69
2023/12/09 03:09:03;;;;;;;6.93;6.83;;;6.20;99.90;;;;;;5080616;28;20495;-69
2023/12/09 03:11:29;;;;;;;7.47;7.37;;;6.20;99.90;;;;;;5075549;28;20526;-69
2023/12/09 03:13:57;;;;;;;7.00;6.90;;;6.20;99.90;;;;;;5092304;28;20464;-70
2023/12/09 03:16:25;;;;;;;6.87;6.77;;;6.10;99.90;;;;;;5098762;28;20458;-69
2023/12/09 03:18:52;;;;;;;7.30;7.20;;;6.10;99.90;;;;;;5085821;28;20463;-69
2023/12/09 03:21:20;;;;;;;6.80;6.70;;;6.10;99.90;;;;;;5086543;28;20477;-69
2023/12/09 03:23:48;;;;;;;6.90;6.80;;;6.00;99.90;;;;;;5090611;28;20466;-69
2023/12/09 03:26:16;;;;;;;7.20;7.10;;;6.00;99.90;;;;;;5062848;28;20571;-69
2023/12/09 03:28:43;;;;;;;7.13;7.03;;;5.90;99.90;;;;;;5058594;28;20967;-69
2023/12/09 03:31:13;;;;;;;7.10;7.00;;;5.90;99.90;;;;;;5067703;28;20719;-69
2023/12/09 03:33:41;;;;;;;7.40;7.30;;;5.90;99.90;;;;;;5064577;28;20547;-69
2023/12/09 03:36:08;;;;;;;7.43;7.33;;;5.90;99.90;;;;;;5065081;28;20831;-70
2023/12/09 03:38:35;;;;;;;8.27;8.17;;;6.00;99.90;;;;;;5053798;28;21019;-69
2023/12/09 03:41:04;;;;;;;8.40;8.30;;;5.90;99.90;;;;;;5058946;28;20589;-70
2023/12/09 03:43:32;;;;;;;8.20;8.10;;;5.90;99.90;;;;;;5064249;28;20638;-70
2023/12/09 03:45:59;;;;;;;8.00;7.90;;;5.80;99.90;;;;;;5069474;28;20540;-69
2023/12/09 03:48:28;;;;;;;7.80;7.70;;;5.90;99.90;;;;;;5054830;28;20889;-69
2023/12/09 03:50:55;;;;;;;7.27;7.17;;;5.90;99.90;;;;;;5068505;28;20480;-69
2023/12/09 03:53:23;;;;;;;7.70;7.60;;;5.90;99.90;;;;;;5064673;28;20462;-69
2023/12/09 03:55:50;;;;;;;7.47;7.37;;;5.90;99.90;;;;;;5070023;28;20520;-69
2023/12/09 03:58:18;;;;;;;7.80;7.70;;;5.90;99.90;;;;;;5055727;28;20477;-69
2023/12/09 04:00:45;;;;;;;8.30;8.20;;;5.90;99.90;;;;;;5069908;28;20545;-69
2023/12/09 04:03:12;;;;;;;7.27;7.17;;;5.90;99.90;;;;;;5066837;28;21035;-69
2023/12/09 04:05:41;;;;;;;7.57;7.47;;;5.80;99.90;;;;;;5054386;28;21029;-69
2023/12/09 04:08:08;;;;;;;7.80;7.70;;;5.90;99.90;;;;;;5064809;28;20547;-69
2023/12/09 04:10:35;;;;;;;8.07;7.97;;;5.80;99.90;;;;;;5062262;28;20459;-69
2023/12/09 04:13:03;;;;;;;7.23;7.13;;;5.70;99.90;;;;;;5061839;28;20475;-70
2023/12/09 04:15:30;;;;;;;7.67;7.57;;;5.70;99.90;;;;;;5066722;28;20470;-70
2023/12/09 04:17:58;;;;;;;7.90;7.80;;;5.60;99.90;;;;;;5062285;28;20464;-70
2023/12/09 04:20:25;;;;;;;8.37;8.27;;;5.60;99.90;;;;;;5067266;28;20464;-69
2023/12/09 04:22:54;;;;;;;8.07;7.97;;;5.60;99.90;;;;;;5068796;28;20508;-70
2023/12/09 04:25:21;;;;;;;7.77;7.67;;;5.60;99.90;;;;;;5066219;28;20565;-70
2023/12/09 04:27:48;;;;;;;8.20;8.10;;;5.60;99.90;;;;;;5078058;28;20511;-69
2023/12/09 04:30:15;;;;;;;7.80;7.70;;;5.50;99.90;;;;;;5092242;28;20627;-70
2023/12/09 04:32:42;;;;;;;7.47;7.37;;;5.50;99.90;;;;;;5082318;28;21226;-71
2023/12/09 04:35:10;;;;;;;7.70;7.60;;;5.40;99.90;;;;;;5073087;28;20467;-70
2023/12/09 04:37:38;;;;;;;7.90;7.80;;;5.40;99.90;;;;;;5083952;28;20530;-69
2023/12/09 04:40:09;;;;;;;8.67;8.57;;;5.20;99.90;;;;;;5078683;28;20461;-69
2023/12/09 04:42:36;;;;;;;8.50;8.40;;;5.20;99.90;;;;;;5074350;28;20825;-70
2023/12/09 04:45:04;;;;;;;8.70;8.60;;;5.10;99.90;;;;;;5087031;28;20464;-69
2023/12/09 04:47:31;;;;;;;8.53;8.43;;;5.10;99.90;;;;;;5093805;28;20492;-69
2023/12/09 04:49:58;;;;;;;8.70;8.60;;;5.00;99.90;;;;;;5085054;28;20512;-69
2023/12/09 04:52:24;;;;;;;8.57;8.47;;;5.10;99.90;;;;;;5079176;28;20904;-69
2023/12/09 04:54:51;;;;;;;8.43;8.33;;;5.10;99.90;;;;;;5078363;28;20502;-69
2023/12/09 04:57:20;;;;;;;8.57;8.47;;;5.00;99.90;;;;;;5081936;28;20462;-69
2023/12/09 04:59:47;;;;;;;8.67;8.57;;;5.10;99.90;;;;;;5082987;28;20833;-69
2023/12/09 05:02:14;;;;;;;9.23;9.03;;;5.00;99.90;;;;;;5090346;28;20532;-69
2023/12/09 05:04:42;;;;;;;9.00;8.80;;;5.10;99.90;;;;;;5085522;28;20465;-69
2023/12/09 05:07:09;;;;;;;8.60;8.50;;;5.00;99.90;;;;;;5080158;28;20470;-69
2023/12/09 05:09:35;;;;;;;9.00;8.80;;;4.90;99.90;;;;;;5084787;28;20462;-69
2023/12/09 05:12:02;;;;;;;8.60;8.50;;;4.80;99.90;;;;;;5076267;28;21342;-68
2023/12/09 05:14:31;;;;;;;8.50;8.40;;;4.70;99.90;;;;;;5078391;28;20499;-70
2023/12/09 05:16:59;;;;;;;9.00;8.80;;;4.60;99.90;;;;;;5085828;28;20532;-70
2023/12/09 05:19:27;;;;;;;8.47;8.37;;;4.60;99.90;;;;;;5086992;28;20457;-70
2023/12/09 05:21:55;;;;;;;9.10;8.90;;;4.60;99.90;;;;;;5084790;28;20463;-70
2023/12/09 05:24:22;;;;;;;8.90;8.70;;;4.60;99.90;;;;;;5078089;28;20594;-70
2023/12/09 05:26:50;;;;;;;8.60;8.50;;;4.60;99.90;;;;;;5071139;28;20481;-70
2023/12/09 05:29:18;;;;;;;9.07;8.87;;;4.60;99.90;;;;;;5071104;28;20470;-70
2023/12/09 05:31:47;;;;;;;8.80;8.60;;;4.60;99.90;;;;;;5073712;28;20525;-70
2023/12/09 05:34:14;;;;;;;8.43;8.33;;;4.60;99.90;;;;;;5076838;28;20450;-70
2023/12/09 05:36:41;;;;;;;8.47;8.37;;;4.60;99.90;;;;;;5075295;28;20499;-70
2023/12/09 05:39:08;;;;;;;8.57;8.47;;;4.60;99.90;;;;;;5071538;28;20537;-70
2023/12/09 05:41:34;;;;;;;8.10;8.00;;;4.60;99.90;;;;;;5083810;28;20935;-70
2023/12/09 05:44:02;;;;;;;9.00;8.80;;;4.60;99.90;;;;;;5079661;28;20468;-70
2023/12/09 05:46:28;;;;;;;8.60;8.50;;;4.60;99.90;;;;;;5084709;28;20642;-70
2023/12/09 05:48:59;;;;;;;8.63;8.53;;;4.60;99.90;;;;;;5080456;28;20457;-70
2023/12/09 05:51:26;;;;;;;8.10;8.00;;;4.70;99.90;;;;;;5080019;28;20539;-69
2023/12/09 05:53:52;;;;;;;8.57;8.47;;;4.70;99.90;;;;;;5081178;28;20523;-69
2023/12/09 05:56:19;;;;;;;8.80;8.60;;;4.80;99.90;;;;;;5080749;28;20473;-70
2023/12/09 05:58:47;;;;;;;8.60;8.50;;;4.80;99.90;;;;;;5083608;28;20458;-69
2023/12/09 06:01:14;;;;;;;8.27;8.17;;;4.70;99.90;;;;;;5087654;28;20457;-69
2023/12/09 06:03:42;;;;;;;8.37;8.27;;;4.70;99.90;;;;;;5085666;28;20482;-69
2023/12/09 06:06:11;;;;;;;8.50;8.40;;;4.70;99.90;;;;;;5082230;28;20983;-69
2023/12/09 06:08:37;;;;;;;8.50;8.40;;;4.70;99.90;;;;;;5090078;28;20800;-70
2023/12/09 06:11:05;;;;;;;8.33;8.23;;;4.70;99.90;;;;;;5081321;28;20504;-71
2023/12/09 06:13:32;;;;;;;8.70;8.60;;;4.70;99.90;;;;;;5101788;28;20497;-70
2023/12/09 06:15:59;;;;;;;8.43;8.33;;;4.70;99.90;;;;;;5098904;28;20457;-71
2023/12/09 06:18:26;;;;;;;8.53;8.43;;;4.70;99.90;;;;;;5081265;28;20448;-71
2023/12/09 06:20:54;;;;;;;8.53;8.43;;;4.70;99.90;;;;;;5083479;28;20458;-71
2023/12/09 06:23:22;;;;;;;9.00;8.80;;;4.70;99.90;;;;;;5084848;28;20466;-69
2023/12/09 06:25:48;;;;;;;8.60;8.50;;;4.70;99.90;;;;;;5086320;28;20895;-69
2023/12/09 06:28:15;;;;;;;8.63;8.53;;;4.70;99.90;;;;;;5078687;28;20839;-70
2023/12/09 06:30:42;;;;;;;7.97;7.87;;;4.70;99.90;;;;;;5090178;28;20460;-69
2023/12/09 06:33:09;;;;;;;8.47;8.37;;;4.70;99.90;;;;;;5086735;28;20490;-69
2023/12/09 06:35:36;;;;;;;8.90;8.70;;;4.70;99.90;;;;;;5078148;28;20832;-69
2023/12/09 06:38:04;;;;;;;8.87;8.67;;;4.60;99.90;;;;;;5092756;28;20502;-70
2023/12/09 06:40:32;;;;;;;9.50;9.30;;;4.60;99.90;;;;;;5089424;28;20461;-70
2023/12/09 06:42:59;;;;;;;9.50;9.30;;;4.60;99.90;;;;;;5081321;28;20467;-70
2023/12/09 06:45:25;;;;;;;9.63;9.43;;;4.60;99.90;;;;;;5082251;28;20786;-70
2023/12/09 06:47:53;;;;;;;9.47;9.27;;;4.60;99.90;;;;;;5091865;28;20511;-70
2023/12/09 06:50:20;;;;;;;9.60;9.40;;;4.50;99.90;;;;;;5090940;28;20486;-70
2023/12/09 06:52:48;;;;;;;9.30;9.10;;;4.50;99.90;;;;;;5083853;28;20567;-70
2023/12/09 06:55:15;;;;;;;9.73;9.53;;;4.50;99.90;;;;;;5086319;28;20467;-69
2023/12/09 06:57:44;;;;;;;9.57;9.37;;;4.40;99.90;;;;;;5084818;28;21193;-70
2023/12/09 07:00:13;;;;;;;9.53;9.33;;;4.40;99.90;;;;;;5089374;28;20815;-69
2023/12/09 07:02:40;;;;;;;9.80;9.60;;;4.40;99.90;;;;;;5083530;28;20465;-70
2023/12/09 07:05:07;;;;;;;9.50;9.30;;;4.40;99.90;;;;;;5089002;28;20462;-70
2023/12/09 07:07:34;;;;;;;11.00;10.70;;;4.40;99.90;;;;;;5079419;28;20980;-70
2023/12/09 07:10:02;;;;;;;10.23;10.03;;;4.30;99.90;;;;;;5081511;28;20569;-70
2023/12/09 07:12:31;;;;;;;10.87;10.57;;;4.30;99.90;;;;;;5083284;28;20833;-70
2023/12/09 07:15:00;;;;;;;11.60;11.30;;;4.30;99.90;;;;;;5082717;28;20466;-69
2023/12/09 07:17:28;;;;;;;10.77;10.47;;;4.30;99.90;;;;;;5090073;28;20929;-69
2023/12/09 07:19:56;;;;;;;10.97;10.67;;;4.30;99.90;;;;;;5086223;28;20464;-69
2023/12/09 07:22:23;;;;;;;10.20;10.00;;;4.30;99.90;;;;;;5079970;28;20471;-70
2023/12/09 07:24:50;;;;;;;10.10;9.90;;;4.30;99.90;;;;;;5074372;28;21083;-69
2023/12/09 07:27:17;;;;;;;10.10;9.90;;;4.20;99.90;;;;;;5054066;28;20842;-70
2023/12/09 07:29:44;;;;;;;10.13;9.93;;;4.20;99.90;;;;;;5067791;28;20832;-69
2023/12/09 07:32:13;;;;;;;9.70;9.50;;;4.20;99.90;;;;;;5064034;28;21141;-69
2023/12/09 07:34:40;;;;;;;9.77;9.57;;;4.20;99.90;;;;;;5063857;28;20996;-69
2023/12/09 07:37:09;;;;;;;10.03;9.83;;;4.20;99.90;;;;;;5068182;28;20575;-69
2023/12/09 07:39:36;;;;;;;9.80;9.60;;;4.20;99.90;;;;;;5053408;28;20464;-68
2023/12/09 07:42:04;;;;;;;9.37;9.17;;;4.30;99.90;;;;;;5059555;28;20455;-70
2023/12/09 07:44:31;;;;;;;9.43;9.23;;;4.30;99.90;;;;;;5051979;28;20469;-69
2023/12/09 07:46:57;;;;;;;9.30;9.10;;;4.40;99.90;;;;;;5059014;28;20459;-69
2023/12/09 07:49:27;;;;;;;9.40;9.20;;;4.30;99.90;;;;;;5064491;28;20466;-69
2023/12/09 07:51:54;;;;;;;9.60;9.40;;;4.40;99.90;;;;;;5052357;28;20484;-69
2023/12/09 07:54:21;;;;;;;10.20;10.00;;;4.40;99.90;;;;;;5067537;28;20803;-70
2023/12/09 07:56:47;;;;;;;10.00;9.80;;;4.50;99.90;;;;;;5059715;28;20463;-70
2023/12/09 07:59:14;;;;;;;9.60;9.40;;;4.50;99.90;;;;;;5062678;28;20479;-70
2023/12/09 08:01:41;;;;;;;10.53;10.30;;;4.60;99.90;;;;;;5063592;28;20465;-70
2023/12/09 08:04:08;;;;;;;10.30;10.10;;;4.60;99.90;;;;;;5063655;28;20459;-70
2023/12/09 08:06:37;;;;;;;9.10;8.90;;;4.70;99.90;;;;;;5061934;28;20462;-70
2023/12/09 08:09:04;;;;;;;10.20;10.00;;;4.80;99.90;;;;;;5069186;28;20497;-70
2023/12/09 08:11:31;;;;;;;10.20;10.00;;;4.80;99.90;;;;;;5059715;28;20468;-70
2023/12/09 08:13:58;;;;;;;9.97;9.77;;;4.90;99.90;;;;;;5076566;28;21016;-70
2023/12/09 08:16:25;;;;;;;10.13;9.93;;;4.90;99.90;;;;;;5052792;28;20959;-70
2023/12/09 08:18:52;;;;;;;10.20;10.00;;;5.00;99.90;;;;;;5060651;28;20456;-70
2023/12/09 08:21:18;;;;;;;9.50;9.30;;;5.00;99.90;;;;;;5062324;28;20597;-70
2023/12/09 08:23:47;;;;;;;9.90;9.70;;;5.10;99.90;;;;;;5064116;28;20469;-70
2023/12/09 08:26:17;;;;;;;9.60;9.40;;;5.20;99.90;;;;;;5088730;28;20478;-67
2023/12/09 08:28:44;;;;;;;9.77;9.57;;;5.20;99.90;;;;;;5071460;28;21362;-68
2023/12/09 08:31:12;;;;;;;9.83;9.63;;;5.20;99.90;;;;;;5081511;28;20452;-70
2023/12/09 08:33:39;;;;;;;9.80;9.60;;;5.30;99.90;;;;;;5085177;28;20547;-68
2023/12/09 08:36:07;;;;;;;10.07;9.87;;;5.40;99.90;;;;;;5078696;28;20462;-70
2023/12/09 08:38:34;;;;;;;9.13;8.93;;;5.40;99.90;;;;;;5085746;28;20860;-69
2023/12/09 08:41:03;;;;;;;9.30;9.10;;;5.40;99.90;;;;;;5077997;28;20455;-69
2023/12/09 08:43:30;;;;;;;8.67;8.57;;;5.40;99.90;;;;;;5080717;28;20463;-68
2023/12/09 08:45:57;;;;;;;9.43;9.23;;;5.50;99.90;;;;;;5079090;28;20466;-68
2023/12/09 08:48:24;;;;;;;9.40;9.20;;;5.50;99.90;;;;;;5091966;28;20466;-69
2023/12/09 08:50:51;;;;;;;9.20;9.00;;;5.50;99.90;;;;;;5081146;28;20474;-69
2023/12/09 08:53:18;;;;;;;9.57;9.37;;;5.60;99.90;;;;;;5080431;28;20506;-69
2023/12/09 08:55:45;;;;;;;9.30;9.10;;;5.60;99.90;;;;;;5086746;28;20459;-68
2023/12/09 08:58:14;;;;;;;9.60;9.40;;;5.70;99.90;;;;;;5090015;28;20574;-69
2023/12/09 09:00:41;;;;;;;10.40;10.20;;;5.70;99.90;;;;;;5077146;28;20565;-70
2023/12/09 09:03:09;;;;;;;10.00;9.80;;;5.80;99.90;;;;;;5088086;28;20554;-68
2023/12/09 09:05:36;;;;;;;10.20;10.00;;;5.80;99.90;;;;;;5085258;28;20906;-69
2023/12/09 09:08:03;;;;;;;9.83;9.63;;;5.90;99.90;;;;;;5089112;28;20949;-69
2023/12/09 09:10:31;;;;;;;10.80;10.50;;;6.00;99.90;;;;;;5076753;28;20543;-69
2023/12/09 09:12:57;;;;;;;10.33;10.13;;;6.10;99.90;;;;;;5087632;28;20852;-69
2023/12/09 09:15:27;;;;;;;10.17;9.97;;;6.20;99.90;;;;;;5087891;28;20451;-68
2023/12/09 09:17:53;;;;;;;9.50;9.30;;;6.30;99.90;;;;;;5087743;28;20549;-70
2023/12/09 09:20:20;;;;;;;9.50;9.30;;;6.30;99.90;;;;;;5083961;28;20906;-70
2023/12/09 09:22:47;;;;;;;9.57;9.37;;;6.30;99.90;;;;;;5087867;28;20450;-71
2023/12/09 09:25:15;;;;;;;9.40;9.20;;;6.40;99.90;;;;;;5070587;28;20541;-70
2023/12/09 09:27:42;;;;;;;9.67;9.47;;;6.40;99.90;;;;;;5055322;28;20465;-71
2023/12/09 09:30:10;;;;;;;9.80;9.60;;;6.50;99.90;;;;;;5066323;28;20936;-71
2023/12/09 09:32:38;;;;;;;9.27;9.07;;;6.60;99.90;;;;;;5064599;28;21016;-70
2023/12/09 09:35:06;;;;;;;9.40;9.20;;;6.60;99.90;;;;;;5066774;28;20876;-71
2023/12/09 09:37:34;;;;;;;9.00;8.80;;;6.60;99.90;;;;;;5059515;28;20493;-70
2023/12/09 09:40:04;;;;;;;9.20;9.00;;;6.70;99.90;;;;;;5056519;28;20457;-70
2023/12/09 09:42:35;;;;;;;9.73;9.53;;;6.70;99.90;;;;;;5061595;28;20508;-71
2023/12/09 09:45:11;;;;;;;8.57;8.47;;;6.80;99.90;;;;;;5045064;28;20580;-70
2023/12/09 09:47:39;;;;;;;9.37;9.17;;;6.90;99.90;;;;;;5059447;28;20467;-70
2023/12/09 09:50:08;;;;;;;9.13;8.93;;;7.00;99.90;;;;;;5061893;28;20466;-70
2023/12/09 09:52:37;;;;;;;9.50;9.30;;;7.10;99.90;;;;;;5060625;28;20492;-71
2023/12/09 09:55:06;;;;;;;9.47;9.27;;;7.20;99.90;;;;;;5060754;28;20471;-70
2023/12/09 09:57:34;;;;;;;9.70;9.50;;;7.20;99.90;;;;;;5051599;28;20464;-70
2023/12/09 10:00:01;;;;;;;8.63;8.53;;;7.20;99.90;;;;;;5059114;28;20970;-70
2023/12/09 10:02:28;;;;;;;9.40;9.20;;;7.30;99.90;;;;;;5053039;28;20460;-70
2023/12/09 10:04:56;;;;;;;8.73;8.53;;;7.30;99.90;;;;;;5062726;28;20518;-70
2023/12/09 10:07:25;;;;;;;9.43;9.23;;;7.40;99.90;;;;;;5065059;28;20455;-71
2023/12/09 10:09:51;;;;;;;9.13;8.93;;;7.40;99.90;;;;;;5057642;28;20463;-71
2023/12/09 10:12:18;;;;;;;8.43;8.33;;;7.60;99.90;;;;;;5070164;28;20475;-71
2023/12/09 10:14:46;;;;;;;8.77;8.60;;;7.80;99.90;;;;;;5059682;28;20519;-70
2023/12/09 10:17:14;;;;;;;9.60;9.40;;;8.00;99.90;;;;;;5054736;28;20539;-70
2023/12/09 10:19:40;;;;;;;9.37;9.17;;;8.10;99.90;;;;;;5051854;28;20468;-70
2023/12/09 10:22:09;;;;;;;9.23;9.03;;;8.30;99.90;;;;;;5060618;28;20459;-70
2023/12/09 10:24:36;;;;;;;9.40;9.20;;;8.50;99.90;;;;;;5066132;28;20494;-70
2023/12/09 10:27:03;;;;;;;9.47;9.27;;;8.80;99.90;;;;;;5073069;28;20851;-71
2023/12/09 10:29:30;;;;;;;9.87;9.67;;;8.90;99.90;;;;;;5080189;28;20969;-71
2023/12/09 10:32:12;;;;;;;9.67;9.47;;;9.00;99.90;;;;;;5081696;28;21114;-70
2023/12/09 10:34:39;;;;;;;10.20;10.00;;;9.10;99.90;;;;;;5076165;28;20486;-70
2023/12/09 10:37:08;;;;;;;10.30;10.10;;;9.10;99.90;;;;;;5064875;28;20462;-70
2023/12/09 10:39:37;;;;;;;10.53;10.30;;;9.20;99.90;;;;;;5077319;28;20463;-70
2023/12/09 10:42:06;;;;;;;10.40;10.20;;;9.30;99.90;;;;;;5069716;28;20925;-70
2023/12/09 10:44:33;;;;;;;10.40;10.20;;;9.30;99.90;;;;;;5077809;28;20943;-71
2023/12/09 10:47:00;;;;;;;11.23;10.93;;;9.30;99.90;;;;;;5076716;28;20509;-69
2023/12/09 10:49:27;;;;;;;10.70;10.40;;;9.30;99.90;;;;;;5080688;28;20477;-70
2023/12/09 10:51:54;;;;;;;10.90;10.60;;;9.20;99.90;;;;;;5083432;28;20542;-69
2023/12/09 10:54:21;;;;;;;11.57;11.27;;;9.10;99.90;;;;;;5083537;28;20481;-68
2023/12/09 10:56:50;;;;;;;11.67;11.37;;;9.00;99.90;;;;;;5069779;28;20588;-69
2023/12/09 10:59:19;;;;;;;11.33;11.03;;;9.00;99.90;;;;;;5073243;28;20532;-69
2023/12/09 11:01:46;;;;;;;11.10;10.80;;;9.00;99.90;;;;;;5076853;28;20831;-69
2023/12/09 11:04:13;;;;;;;11.17;10.87;;;8.90;99.90;;;;;;5075804;28;21143;-70
2023/12/09 11:06:42;;;;;;;10.60;10.30;;;8.90;99.90;;;;;;5075937;28;20549;-71
2023/12/09 11:09:09;;;;;;;11.07;10.77;;;8.80;99.90;;;;;;5072244;28;20995;-71
2023/12/09 11:11:36;;;;;;;10.90;10.60;;;8.80;99.90;;;;;;5074000;28;20919;-70
2023/12/09 11:14:07;;;;;;;10.93;10.63;;;8.80;99.90;;;;;;5075646;28;20589;-70
2023/12/09 11:16:34;;;;;;;10.93;10.63;;;8.80;99.90;;;;;;5072392;28;20972;-70
2023/12/09 11:19:01;;;;;;;10.20;10.00;;;8.80;99.90;;;;;;5072826;28;20454;-71
2023/12/09 11:21:29;;;;;;;11.00;10.70;;;8.80;99.90;;;;;;5078092;28;20466;-70
2023/12/09 11:23:58;;;;;;;12.23;11.83;;;8.70;99.90;;;;;;5077169;28;20501;-70
2023/12/09 11:26:29;;;;;;;12.60;12.20;;;8.70;99.90;;;;;;5075748;28;20482;-70
2023/12/09 11:29:04;;;;;;;12.50;12.10;;;8.60;99.90;;;;;;5075238;28;20873;-70
2023/12/09 11:31:38;;;;;;;12.10;11.70;;;8.70;99.90;;;;;;5080224;28;20492;-70
2023/12/09 11:34:07;;;;;;;15.23;14.57;;;8.60;99.90;;;;;;5068978;28;20505;-69
2023/12/09 11:36:36;;;;;;;16.10;15.30;;;8.60;99.90;;;;;;5075815;28;20461;-69
2023/12/09 11:39:06;;;;;;;17.57;16.57;;;8.60;99.90;;;;;;5072488;28;20932;-69
2023/12/09 11:41:34;;;;;;;18.30;17.20;;;8.60;99.90;;;;;;5078309;28;20467;-69
2023/12/09 11:44:02;;;;;;;18.90;17.70;;;8.60;99.90;;;;;;5074721;28;20451;-70
2023/12/09 11:46:30;;;;;;;18.30;17.20;;;8.60;99.90;;;;;;5074678;28;20462;-70
2023/12/09 11:48:57;;;;;;;18.10;17.00;;;8.60;99.90;;;;;;5070165;28;20456;-70
2023/12/09 11:51:25;;;;;;;17.60;16.60;;;8.70;99.90;;;;;;5078694;28;20551;-70
2023/12/09 11:53:56;;;;;;;17.57;16.57;;;8.70;99.90;;;;;;5077794;28;20614;-70
2023/12/09 11:56:23;;;;;;;17.33;16.43;;;8.60;99.90;;;;;;5074010;28;20450;-69
2023/12/09 11:58:51;;;;;;;17.20;16.30;;;8.60;99.90;;;;;;5070333;28;20547;-71
2023/12/09 12:01:17;;;;;;;17.13;16.23;;;8.70;99.90;;;;;;5081434;28;20494;-70
2023/12/09 12:03:47;;;;;;;16.43;15.63;;;8.60;99.90;;;;;;5082413;28;20470;-68
2023/12/09 12:06:15;;;;;;;16.87;15.97;;;8.60;99.90;;;;;;5065375;28;21068;-69
2023/12/09 12:08:43;;;;;;;17.13;16.23;;;8.60;99.90;;;;;;5083645;28;20902;-69
2023/12/09 12:11:09;;;;;;;16.60;15.80;;;8.60;99.90;;;;;;5076479;28;21181;-68
2023/12/09 12:13:36;;;;;;;16.63;15.83;;;8.50;99.90;;;;;;5078582;28;20479;-68
2023/12/09 12:16:04;;;;;;;15.70;14.90;;;8.50;99.90;;;;;;5077767;28;20470;-69
2023/12/09 12:18:32;;;;;;;16.37;15.57;;;8.50;99.90;;;;;;5071619;28;20469;-69
2023/12/09 12:21:00;;;;;;;15.80;15.10;;;8.50;99.90;;;;;;5074180;28;20529;-71
2023/12/09 12:23:27;;;;;;;15.37;14.67;;;8.50;99.90;;;;;;5074593;28;20459;-70
2023/12/09 12:25:55;;;;;;;15.13;14.43;;;8.50;99.90;;;;;;5071844;28;20491;-70
2023/12/09 12:28:22;;;;;;;15.37;14.67;;;8.40;99.90;;;;;;5088260;28;20449;-70
2023/12/09 12:30:52;;;;;;;14.70;14.10;;;8.50;99.90;;;;;;5082396;28;20451;-70
2023/12/09 12:33:23;;;;;;;14.60;14.00;;;8.50;99.90;;;;;;5080947;28;20451;-70
2023/12/09 12:35:51;;;;;;;14.53;13.93;;;8.40;99.90;;;;;;5076949;28;20705;-70
2023/12/09 12:38:23;;;;;;;14.70;14.10;;;8.30;99.90;;;;;;5073139;28;20464;-70
2023/12/09 12:40:50;;;;;;;14.30;13.70;;;8.30;99.90;;;;;;5089208;28;20885;-69
2023/12/09 12:43:17;;;;;;;14.60;14.00;;;8.30;99.90;;;;;;5083513;28;20488;-70
2023/12/09 12:45:47;;;;;;;13.90;13.40;;;8.30;99.90;;;;;;5094040;28;20460;-70
2023/12/09 12:48:14;;;;;;;14.33;13.73;;;8.20;99.90;;;;;;5092668;28;20458;-70
2023/12/09 12:50:41;;;;;;;14.30;13.70;;;8.20;99.90;;;;;;5075806;28;20468;-70
2023/12/09 12:53:08;;;;;;;14.87;14.27;;;8.20;99.90;;;;;;5079981;28;20466;-71
2023/12/09 12:55:36;;;;;;;14.60;14.00;;;8.20;99.90;;;;;;5075902;28;20499;-70